Riviere-Saint-Jean, Canada
Current Conditions -  °F | °C
As of 4:00 PM on Tuesday 25 Nov 2014 (Local Time) from CYGV Reporting Station
Overcast Overcast  
Wind Chill: -2°   Ceiling: 5500
Heat Index:   Visibility: 9mi
Dew Point:   Wind: 28mph
Humidity: 87%   Direction: 250°WSW
Pressure: 29.45"   Gusts: 38mph
Location:  50.28°N, 64.33°W
Report Text: CYGV 252100Z AUTO 25024G33KT 9SM OVC055 04/02 A2945 RMK PRESRR SLP973
Loading
Personal Weather Stations






























Interactive Weather Map New forecast layout! Learn more

10-Day Weather Forecast

Advertisements
Track Severe Weather on mobile